createdAt,value
2023-04-24T00:00:19.592Z,56.95
2023-04-24T00:02:48.435Z,57.01
2023-04-24T00:05:15.614Z,56.99
2023-04-24T00:07:42.560Z,57.06
2023-04-24T00:10:09.705Z,57.02
2023-04-24T00:12:36.568Z,57.03
2023-04-24T00:15:05.404Z,57.44
2023-04-24T00:17:32.418Z,57.37
2023-04-24T00:19:59.165Z,57.47
2023-04-24T00:22:28.009Z,57.59
2023-04-24T00:24:55.059Z,57.74
2023-04-24T00:27:21.903Z,57.71
2023-04-24T00:29:48.836Z,57.84
2023-04-24T00:32:15.770Z,57.94
2023-04-24T00:34:42.469Z,58.17
2023-04-24T00:37:09.404Z,57.94
2023-04-24T00:39:37.657Z,57.77
2023-04-24T00:42:06.683Z,57.92
2023-04-24T00:44:35.063Z,57.99
2023-04-24T00:47:01.848Z,57.94
2023-04-24T00:49:30.335Z,57.81
2023-04-24T00:51:57.222Z,57.86
2023-04-24T00:54:23.889Z,57.86
2023-04-24T00:56:52.319Z,58.02
2023-04-24T00:59:19.254Z,57.95
2023-04-24T01:01:46.241Z,58.02
2023-04-24T01:04:13.366Z,57.91
2023-04-24T01:06:40.459Z,58.03
2023-04-24T01:09:08.982Z,58.07
2023-04-24T01:11:37.413Z,57.96
2023-04-24T01:14:05.395Z,58.05
2023-04-24T01:16:32.056Z,58.07
2023-04-24T01:18:58.800Z,58.02
2023-04-24T01:21:28.097Z,57.89
2023-04-24T01:23:56.110Z,58.06
2023-04-24T01:26:23.069Z,58.03
2023-04-24T01:28:50.020Z,58.23
2023-04-24T01:31:16.925Z,58.07
2023-04-24T01:33:44.358Z,58.29
2023-04-24T01:36:11.521Z,58.30
2023-04-24T01:38:38.276Z,58.35
2023-04-24T01:41:04.966Z,58.59
2023-04-24T01:43:32.345Z,58.51
2023-04-24T01:45:59.165Z,58.42
2023-04-24T01:48:25.924Z,58.48
2023-04-24T01:50:52.656Z,58.50
2023-04-24T01:53:20.540Z,58.59
2023-04-24T01:55:47.212Z,58.85
2023-04-24T01:58:14.011Z,58.55
2023-04-24T02:00:41.634Z,58.78
2023-04-24T02:03:08.672Z,58.85
2023-04-24T02:05:35.485Z,58.99
2023-04-24T02:08:03.290Z,58.85
2023-04-24T02:10:30.234Z,58.81
2023-04-24T02:13:00.139Z,59.26
2023-04-24T02:15:26.807Z,59.37
2023-04-24T02:17:53.725Z,59.28
2023-04-24T02:20:20.479Z,59.38
2023-04-24T02:22:47.435Z,59.29
2023-04-24T02:25:14.127Z,59.43
2023-04-24T02:27:41.380Z,59.46
2023-04-24T02:30:09.106Z,59.53
2023-04-24T02:32:36.940Z,59.60
2023-04-24T02:35:03.910Z,59.77
2023-04-24T02:37:31.015Z,59.74
2023-04-24T02:39:57.730Z,59.75
2023-04-24T02:42:24.628Z,59.63
2023-04-24T02:44:51.948Z,59.84
2023-04-24T02:47:18.769Z,59.60
2023-04-24T02:49:46.382Z,59.59
2023-04-24T02:52:15.139Z,59.46
2023-04-24T02:54:41.940Z,59.49
2023-04-24T02:57:08.766Z,59.68
2023-04-24T02:59:35.983Z,59.72
2023-04-24T03:02:02.831Z,59.56
2023-04-24T03:04:30.125Z,59.73
2023-04-24T03:06:57.514Z,59.68
2023-04-24T03:09:24.562Z,59.75
2023-04-24T03:11:51.419Z,59.63
2023-04-24T03:14:18.230Z,59.76
2023-04-24T03:16:45.051Z,59.81
2023-04-24T03:19:12.030Z,59.81
2023-04-24T03:21:45.528Z,59.96
2023-04-24T03:24:12.291Z,59.86
2023-04-24T03:26:39.553Z,59.81
2023-04-24T03:29:33.062Z,59.73
2023-04-24T03:32:00.423Z,59.76
2023-04-24T03:34:27.790Z,59.68
2023-04-24T03:36:56.225Z,59.37
2023-04-24T03:39:23.124Z,59.33
2023-04-24T03:41:54.553Z,59.27
2023-04-24T03:44:25.660Z,58.84
2023-04-24T03:46:52.382Z,57.70
2023-04-24T03:49:19.978Z,56.63
2023-04-24T03:51:47.622Z,55.47
2023-04-24T03:54:20.299Z,54.62
2023-04-24T03:56:47.521Z,53.71
2023-04-24T03:59:15.016Z,53.08
2023-04-24T04:01:44.273Z,52.68
2023-04-24T04:04:16.286Z,52.28
2023-04-24T04:06:44.745Z,51.96
2023-04-24T04:09:11.902Z,51.72
2023-04-24T04:11:40.744Z,51.39
2023-04-24T04:14:07.656Z,50.92
2023-04-24T04:16:36.920Z,50.98
2023-04-24T04:19:04.487Z,50.89
2023-04-24T04:21:32.566Z,50.89
2023-04-24T04:24:10.078Z,50.54
2023-04-24T04:26:41.087Z,50.19
2023-04-24T04:29:10.698Z,49.98
2023-04-24T04:31:40.760Z,49.82
2023-04-24T04:34:12.069Z,49.51
2023-04-24T04:36:40.415Z,49.22
2023-04-24T04:39:19.745Z,49.00
2023-04-24T04:42:29.760Z,48.61
2023-04-24T04:44:57.743Z,48.48
2023-04-24T04:47:32.202Z,48.40
2023-04-24T04:49:59.248Z,48.02
2023-04-24T04:52:27.619Z,46.70
2023-04-24T04:55:00.875Z,44.72
2023-04-24T04:57:38.810Z,42.98
2023-04-24T05:00:07.337Z,40.95
2023-04-24T05:02:42.661Z,39.00
2023-04-24T05:05:09.776Z,37.19
2023-04-24T05:07:36.706Z,35.84
2023-04-24T05:10:03.794Z,35.44
2023-04-24T05:12:31.404Z,35.37
2023-04-24T05:14:58.833Z,35.38
2023-04-24T05:17:26.289Z,35.46
2023-04-24T05:19:53.690Z,35.75
2023-04-24T05:22:21.392Z,35.82
2023-04-24T05:24:50.986Z,35.78
2023-04-24T05:27:44.982Z,35.90
2023-04-24T05:30:14.843Z,35.89
2023-04-24T05:32:42.027Z,35.98
2023-04-24T05:35:08.890Z,36.05
2023-04-24T05:37:36.435Z,36.20
2023-04-24T05:40:05.524Z,35.99
2023-04-24T05:42:32.676Z,35.87
2023-04-24T05:44:59.696Z,35.96
2023-04-24T05:47:27.352Z,35.90
2023-04-24T05:49:54.544Z,35.59
2023-04-24T05:52:21.608Z,35.87
2023-04-24T05:54:48.702Z,35.99
2023-04-24T05:57:21.352Z,36.03
2023-04-24T05:59:58.292Z,35.99
2023-04-24T06:02:25.668Z,36.08
2023-04-24T06:04:53.226Z,35.52
2023-04-24T06:07:23.534Z,35.42
2023-04-24T06:09:50.409Z,35.33
2023-04-24T06:12:18.056Z,35.26
2023-04-24T06:14:55.897Z,35.27
2023-04-24T06:17:45.353Z,35.54
2023-04-24T06:20:12.468Z,35.60
2023-04-24T06:22:40.628Z,35.51
2023-04-24T06:25:09.621Z,35.39
2023-04-24T06:27:37.511Z,35.41
2023-04-24T06:30:05.020Z,35.98
2023-04-24T06:32:32.889Z,35.79
2023-04-24T06:35:07.550Z,35.88
2023-04-24T06:37:35.578Z,35.84
2023-04-24T06:40:08.260Z,36.02
2023-04-24T06:42:36.987Z,35.84
2023-04-24T06:45:06.209Z,35.65
2023-04-24T06:47:35.821Z,35.97
2023-04-24T06:50:03.483Z,35.08
2023-04-24T06:52:33.892Z,34.50
2023-04-24T06:55:03.259Z,34.90
2023-04-24T06:57:31.984Z,35.00
2023-04-24T07:00:03.034Z,34.93
2023-04-24T07:02:32.777Z,35.07
2023-04-24T07:04:59.486Z,35.12
2023-04-24T07:07:28.136Z,34.83
2023-04-24T07:09:56.831Z,34.78
2023-04-24T07:12:24.142Z,34.41
2023-04-24T07:14:51.882Z,34.28
2023-04-24T07:17:19.363Z,34.31
2023-04-24T07:19:46.769Z,34.39
2023-04-24T07:22:17.288Z,34.82
2023-04-24T07:24:47.733Z,35.26
2023-04-24T07:27:15.394Z,34.53
2023-04-24T07:29:43.103Z,33.76
2023-04-24T07:32:11.775Z,34.11
2023-04-24T07:34:38.691Z,33.97
2023-04-24T07:37:06.803Z,33.47
2023-04-24T07:39:34.968Z,33.89
2023-04-24T07:42:03.090Z,34.24
2023-04-24T07:44:33.660Z,34.05
2023-04-24T07:47:01.432Z,33.29
2023-04-24T07:49:30.354Z,32.75
2023-04-24T07:51:57.579Z,31.38
2023-04-24T07:54:27.020Z,30.24
2023-04-24T07:56:54.215Z,29.64
2023-04-24T07:59:21.611Z,30.28
2023-04-24T08:01:52.640Z,30.87
2023-04-24T08:04:19.831Z,31.25
2023-04-24T08:07:12.468Z,31.28
2023-04-24T08:09:46.491Z,31.50
2023-04-24T08:12:22.449Z,31.02
2023-04-24T08:14:49.574Z,30.92
2023-04-24T08:17:17.769Z,31.29
2023-04-24T08:19:48.658Z,31.15
2023-04-24T08:22:16.156Z,30.61
2023-04-24T08:24:44.503Z,29.79
2023-04-24T08:27:15.374Z,29.91
2023-04-24T08:29:42.923Z,29.55
2023-04-24T08:32:10.250Z,29.66
2023-04-24T08:34:37.528Z,29.89
2023-04-24T08:37:09.290Z,29.98
2023-04-24T08:39:38.480Z,29.14
2023-04-24T08:42:08.478Z,28.01
2023-04-24T08:44:36.400Z,27.28
2023-04-24T08:47:03.522Z,25.61
2023-04-24T08:49:30.702Z,24.68
2023-04-24T08:52:00.638Z,24.32
2023-04-24T08:54:30.946Z,23.53
2023-04-24T08:57:04.345Z,23.13
2023-04-24T08:59:31.996Z,21.53
2023-04-24T09:02:00.188Z,21.48
2023-04-24T09:04:27.622Z,21.39
2023-04-24T09:06:57.319Z,22.25
2023-04-24T09:09:25.205Z,22.00
2023-04-24T09:11:54.504Z,22.02
2023-04-24T09:14:24.111Z,22.28
2023-04-24T09:16:51.798Z,21.96
2023-04-24T09:19:19.066Z,21.37
2023-04-24T09:21:46.708Z,21.10
2023-04-24T09:24:18.228Z,20.72
2023-04-24T09:26:47.355Z,20.39
2023-04-24T09:29:15.958Z,19.85
2023-04-24T09:31:43.151Z,19.34
2023-04-24T09:34:10.805Z,18.91
2023-04-24T09:36:41.910Z,18.28
2023-04-24T09:39:15.872Z,17.62
2023-04-24T09:41:50.398Z,17.72
2023-04-24T09:44:24.593Z,18.02
2023-04-24T09:46:56.045Z,17.60
2023-04-24T09:49:25.099Z,16.92
2023-04-24T09:51:52.342Z,17.38
2023-04-24T09:54:21.623Z,18.21
2023-04-24T09:56:50.029Z,17.99
2023-04-24T09:59:20.072Z,17.36
2023-04-24T10:02:07.229Z,17.48
2023-04-24T10:04:34.985Z,18.02
2023-04-24T10:07:04.765Z,18.27
2023-04-24T10:09:33.280Z,18.40
2023-04-24T10:12:09.242Z,18.32
2023-04-24T10:14:38.051Z,18.21
2023-04-24T10:17:06.820Z,18.47
2023-04-24T10:19:37.688Z,18.67
2023-04-24T10:22:05.991Z,18.91
2023-04-24T10:24:42.156Z,18.92
2023-04-24T10:27:10.407Z,19.39
2023-04-24T10:29:37.927Z,20.15
2023-04-24T10:32:11.867Z,20.48
2023-04-24T10:34:39.335Z,20.82
2023-04-24T10:37:06.988Z,21.08
2023-04-24T10:39:34.442Z,20.65
2023-04-24T10:42:02.292Z,20.35
2023-04-24T10:44:41.693Z,20.46
2023-04-24T10:47:14.747Z,20.52
2023-04-24T10:49:42.601Z,20.73
2023-04-24T10:52:15.233Z,21.03
2023-04-24T10:54:45.917Z,21.32
2023-04-24T10:57:25.454Z,21.60
2023-04-24T11:00:12.021Z,21.63
2023-04-24T11:02:44.857Z,21.51
2023-04-24T11:05:13.014Z,20.76
2023-04-24T11:08:40.333Z,20.24
2023-04-24T11:11:09.004Z,19.36
2023-04-24T11:13:58.328Z,19.05
2023-04-24T11:16:42.899Z,18.53
2023-04-24T11:19:27.642Z,18.85
2023-04-24T11:22:02.576Z,19.52
2023-04-24T11:24:36.288Z,19.84
2023-04-24T11:27:06.148Z,20.20
2023-04-24T11:29:56.044Z,20.35
2023-04-24T11:32:38.692Z,20.22
2023-04-24T11:35:59.504Z,20.53
2023-04-24T11:38:35.308Z,20.16
2023-04-24T11:41:06.629Z,20.98
2023-04-24T11:43:34.247Z,21.96
2023-04-24T11:46:01.407Z,22.42
2023-04-24T11:48:28.724Z,22.49
2023-04-24T11:50:55.995Z,21.98
2023-04-24T11:53:23.817Z,21.74
2023-04-24T11:55:52.126Z,22.34
2023-04-24T11:58:24.398Z,22.64
2023-04-24T12:00:58.797Z,22.92
2023-04-24T12:03:26.847Z,23.66
2023-04-24T12:06:05.409Z,25.18
2023-04-24T12:08:33.229Z,26.09
2023-04-24T12:11:04.212Z,26.53
2023-04-24T12:13:31.514Z,26.98
2023-04-24T12:15:59.516Z,27.57
2023-04-24T12:18:26.957Z,27.97
2023-04-24T12:23:38.181Z,28.54
2023-04-24T12:26:06.524Z,28.84
2023-04-24T12:28:38.258Z,29.20
2023-04-24T12:31:05.262Z,29.30
2023-04-24T12:33:33.908Z,29.23
2023-04-24T12:36:02.373Z,29.36
2023-04-24T12:38:40.454Z,29.63
2023-04-24T12:41:13.712Z,30.06
2023-04-24T12:43:52.919Z,30.52
2023-04-24T12:46:22.532Z,30.65
2023-04-24T12:48:50.132Z,31.40
2023-04-24T12:51:21.629Z,30.91
2023-04-24T12:53:49.972Z,31.14
2023-04-24T12:56:17.782Z,30.83
2023-04-24T12:58:44.778Z,30.83
2023-04-24T13:01:14.765Z,30.38
2023-04-24T13:03:42.303Z,30.37
2023-04-24T13:06:18.527Z,30.53
2023-04-24T13:08:45.727Z,30.53
2023-04-24T13:11:12.505Z,30.56
2023-04-24T13:13:39.748Z,30.58
2023-04-24T13:16:07.732Z,30.56
2023-04-24T13:18:35.391Z,30.29
2023-04-24T13:21:02.662Z,30.42
2023-04-24T13:23:30.197Z,30.16
2023-04-24T13:26:01.604Z,30.12
2023-04-24T13:28:31.460Z,30.10
2023-04-24T13:31:00.934Z,30.06
2023-04-24T13:33:30.061Z,30.16
2023-04-24T13:35:57.130Z,29.92
2023-04-24T13:38:24.567Z,29.85
2023-04-24T13:40:55.971Z,30.04
2023-04-24T13:43:25.585Z,30.24
2023-04-24T13:45:53.114Z,30.39
2023-04-24T13:48:24.356Z,30.68
2023-04-24T13:50:52.339Z,30.91
2023-04-24T13:53:20.378Z,30.65
2023-04-24T13:55:48.811Z,31.13
2023-04-24T13:58:16.979Z,31.40
2023-04-24T14:00:43.879Z,31.61
2023-04-24T14:03:13.285Z,31.08
2023-04-24T14:05:45.263Z,31.07
2023-04-24T14:08:12.751Z,31.11
2023-04-24T14:10:39.780Z,30.99
2023-04-24T14:13:06.873Z,30.98
2023-04-24T14:15:33.875Z,30.96
2023-04-24T14:18:01.032Z,31.11
2023-04-24T14:20:27.988Z,31.18
2023-04-24T14:22:55.311Z,31.10
2023-04-24T14:25:26.458Z,31.07
2023-04-24T14:27:53.474Z,30.34
2023-04-24T14:30:20.956Z,30.02
2023-04-24T14:32:51.466Z,29.86
2023-04-24T14:35:22.548Z,30.35
2023-04-24T14:37:50.245Z,30.92
2023-04-24T14:42:49.152Z,31.37
2023-04-24T14:45:16.874Z,31.76
2023-04-24T14:47:45.983Z,32.05
2023-04-24T14:50:14.564Z,32.23
2023-04-24T14:52:46.929Z,32.17
2023-04-24T14:55:15.052Z,32.22
2023-04-24T14:57:42.853Z,32.16
2023-04-24T15:00:11.808Z,32.02
2023-04-24T15:02:42.306Z,31.81
2023-04-24T15:05:11.074Z,31.56
2023-04-24T15:07:39.013Z,30.93
2023-04-24T15:10:07.448Z,30.93
2023-04-24T15:12:35.158Z,30.87
2023-04-24T15:15:03.854Z,30.79
2023-04-24T15:17:30.962Z,30.77
2023-04-24T15:19:58.008Z,31.04
2023-04-24T15:22:24.997Z,30.97
2023-04-24T15:24:51.986Z,30.40
2023-04-24T15:27:19.028Z,29.96
2023-04-24T15:29:45.996Z,29.75
2023-04-24T15:32:14.476Z,30.02
2023-04-24T15:34:41.234Z,30.26
2023-04-24T15:37:08.542Z,30.56
2023-04-24T15:39:38.059Z,30.73
2023-04-24T15:42:06.285Z,30.72
2023-04-24T15:44:33.137Z,30.67
2023-04-24T15:47:01.131Z,30.55
2023-04-24T15:49:27.938Z,30.60
2023-04-24T15:51:54.758Z,30.53
2023-04-24T15:54:21.800Z,30.72
2023-04-24T15:56:50.349Z,30.80
2023-04-24T15:59:18.421Z,30.88
2023-04-24T16:01:46.699Z,30.76
2023-04-24T16:04:14.199Z,30.71
2023-04-24T16:06:41.418Z,31.01
2023-04-24T16:09:09.670Z,31.12
2023-04-24T16:11:37.161Z,31.09
2023-04-24T16:14:04.328Z,31.08
2023-04-24T16:16:31.638Z,31.05
2023-04-24T16:18:58.531Z,31.16
2023-04-24T16:21:25.856Z,31.26
2023-04-24T16:23:52.843Z,31.23
2023-04-24T16:26:19.839Z,31.32
2023-04-24T16:28:48.386Z,31.27
2023-04-24T16:31:16.232Z,31.30
2023-04-24T16:33:43.469Z,31.51
2023-04-24T16:36:12.818Z,31.64
2023-04-24T16:38:40.271Z,31.84
2023-04-24T16:41:06.976Z,32.73
2023-04-24T16:43:35.409Z,32.98
2023-04-24T16:46:02.563Z,32.75
2023-04-24T16:48:32.105Z,32.50
2023-04-24T16:51:00.208Z,32.55
2023-04-24T16:53:27.177Z,32.60
2023-04-24T16:55:54.270Z,32.76
2023-04-24T16:58:21.161Z,32.94
2023-04-24T17:00:48.090Z,33.09
2023-04-24T17:03:16.506Z,33.69
2023-04-24T17:05:43.333Z,33.52
2023-04-24T17:08:10.671Z,33.27
2023-04-24T17:10:38.510Z,33.03
2023-04-24T17:13:05.443Z,33.06
2023-04-24T17:15:33.165Z,33.27
2023-04-24T17:18:00.513Z,33.24
2023-04-24T17:20:29.785Z,33.35
2023-04-24T17:22:57.689Z,33.43
2023-04-24T17:25:25.050Z,33.46
2023-04-24T17:27:52.948Z,33.54
2023-04-24T17:30:20.011Z,33.74
2023-04-24T17:32:46.982Z,33.84
2023-04-24T17:35:13.809Z,33.83
2023-04-24T17:37:41.023Z,33.87
2023-04-24T17:40:08.535Z,33.88
2023-04-24T17:42:40.780Z,33.89
2023-04-24T17:45:08.538Z,34.01
2023-04-24T17:47:36.727Z,34.02
2023-04-24T17:50:03.684Z,34.17
2023-04-24T17:52:32.040Z,34.64
2023-04-24T17:54:59.156Z,35.33
2023-04-24T17:57:26.720Z,35.76
2023-04-24T17:59:53.643Z,36.22
2023-04-24T18:02:23.742Z,36.55
2023-04-24T18:04:52.217Z,36.87
2023-04-24T18:07:21.224Z,37.09
2023-04-24T18:09:47.983Z,37.53
2023-04-24T18:12:15.565Z,37.62
2023-04-24T18:14:42.455Z,36.86
2023-04-24T18:17:09.373Z,36.71
2023-04-24T18:19:36.509Z,37.08
2023-04-24T18:22:04.404Z,36.96
2023-04-24T18:24:31.888Z,36.97
2023-04-24T18:26:58.693Z,36.97
2023-04-24T18:29:27.368Z,37.07
2023-04-24T18:31:54.249Z,37.05
2023-04-24T18:34:21.908Z,37.10
2023-04-24T18:36:48.677Z,37.16
2023-04-24T18:39:15.840Z,37.27
2023-04-24T18:41:42.545Z,37.41
2023-04-24T18:44:11.074Z,37.60
2023-04-24T18:46:40.778Z,37.85
2023-04-24T18:49:08.441Z,38.08
2023-04-24T18:51:46.638Z,38.16
2023-04-24T18:54:19.727Z,38.46
2023-04-24T18:56:46.727Z,38.77
2023-04-24T18:59:13.672Z,38.92
2023-04-24T19:01:41.223Z,39.08
2023-04-24T19:04:08.156Z,39.33
2023-04-24T19:06:35.255Z,39.39
2023-04-24T19:09:02.140Z,39.57
2023-04-24T19:11:29.310Z,39.73
2023-04-24T19:13:58.556Z,39.85
2023-04-24T19:16:26.131Z,40.02
2023-04-24T19:18:52.857Z,40.06
2023-04-24T19:21:20.267Z,40.04
2023-04-24T19:23:49.777Z,40.25
2023-04-24T19:26:16.723Z,40.43
2023-04-24T19:28:45.601Z,40.54
2023-04-24T19:31:13.277Z,40.77
2023-04-24T19:33:40.227Z,40.90
2023-04-24T19:36:07.189Z,41.19
2023-04-24T19:38:34.220Z,41.13
2023-04-24T19:41:01.193Z,41.11
2023-04-24T19:43:27.994Z,41.35
2023-04-24T19:45:57.173Z,41.52
2023-04-24T19:48:24.278Z,41.49
2023-04-24T19:50:52.198Z,41.61
2023-04-24T19:53:21.417Z,41.78
2023-04-24T19:55:48.464Z,41.80
2023-04-24T19:58:15.919Z,41.94
2023-04-24T20:00:43.089Z,42.16
2023-04-24T20:03:13.742Z,42.22
2023-04-24T20:05:48.850Z,42.21
2023-04-24T20:08:15.720Z,42.38
2023-04-24T20:10:43.387Z,42.57
2023-04-24T20:13:11.729Z,42.50
2023-04-24T20:15:38.879Z,42.60
2023-04-24T20:18:05.760Z,42.65
2023-04-24T20:20:33.928Z,42.61
2023-04-24T20:23:01.644Z,42.82
2023-04-24T20:25:28.684Z,43.14
2023-04-24T20:27:55.943Z,43.39
2023-04-24T20:30:22.672Z,43.75
2023-04-24T20:32:49.827Z,43.85
2023-04-24T20:35:16.920Z,44.03
2023-04-24T20:37:43.742Z,44.24
2023-04-24T20:40:13.768Z,44.46
2023-04-24T20:42:40.599Z,44.58
2023-04-24T20:45:08.044Z,44.73
2023-04-24T20:47:36.168Z,45.15
2023-04-24T20:50:05.838Z,45.38
2023-04-24T20:52:32.726Z,45.47
2023-04-24T20:54:59.576Z,45.68
2023-04-24T20:57:26.466Z,45.93
2023-04-24T20:59:53.904Z,46.22
2023-04-24T21:02:20.720Z,46.17
2023-04-24T21:04:47.752Z,46.38
2023-04-24T21:07:15.208Z,46.86
2023-04-24T21:09:41.817Z,47.14
2023-04-24T21:12:09.061Z,47.46
2023-04-24T21:14:35.992Z,47.77
2023-04-24T21:17:03.483Z,47.90
2023-04-24T21:19:31.624Z,48.23
2023-04-24T21:21:58.528Z,48.23
2023-04-24T21:24:25.308Z,48.35
2023-04-24T21:26:52.105Z,48.54
2023-04-24T21:29:18.627Z,48.74
2023-04-24T21:31:45.658Z,48.87
2023-04-24T21:34:12.851Z,49.11
2023-04-24T21:36:39.795Z,49.19
2023-04-24T21:39:06.504Z,49.26
2023-04-24T21:41:33.536Z,49.39
2023-04-24T21:44:00.157Z,49.32
2023-04-24T21:46:26.878Z,49.38
2023-04-24T21:48:53.727Z,49.52
2023-04-24T21:51:20.463Z,49.66
2023-04-24T21:53:47.647Z,49.63
2023-04-24T21:56:14.453Z,49.88
2023-04-24T21:58:41.172Z,49.99
2023-04-24T22:01:08.831Z,50.16
2023-04-24T22:03:35.845Z,50.17
2023-04-24T22:06:02.879Z,50.22
2023-04-24T22:08:32.000Z,50.27
2023-04-24T22:10:58.927Z,50.36
2023-04-24T22:13:25.733Z,50.48
2023-04-24T22:15:52.828Z,50.58
2023-04-24T22:18:19.667Z,50.82
2023-04-24T22:20:48.732Z,50.83
2023-04-24T22:23:15.861Z,51.00
2023-04-24T22:25:42.684Z,51.03
2023-04-24T22:28:10.172Z,51.29
2023-04-24T22:30:37.146Z,51.42
2023-04-24T22:33:04.565Z,51.68
2023-04-24T22:35:32.410Z,51.96
2023-04-24T22:37:59.080Z,52.16
2023-04-24T22:40:28.240Z,52.46
2023-04-24T22:42:55.288Z,52.69
2023-04-24T22:45:25.634Z,52.59
2023-04-24T22:47:53.277Z,52.74
2023-04-24T22:50:20.099Z,52.86
2023-04-24T22:52:47.184Z,53.14
2023-04-24T22:55:14.250Z,53.09
2023-04-24T22:57:41.250Z,53.12
2023-04-24T23:00:10.476Z,53.28
2023-04-24T23:02:39.396Z,53.41
2023-04-24T23:05:06.924Z,53.47
2023-04-24T23:07:35.065Z,53.56
2023-04-24T23:10:01.735Z,53.60
2023-04-24T23:12:29.001Z,53.65
2023-04-24T23:14:55.958Z,53.75
2023-04-24T23:17:22.584Z,53.83
2023-04-24T23:19:50.743Z,53.88
2023-04-24T23:22:20.105Z,53.95
2023-04-24T23:24:48.150Z,54.19
2023-04-24T23:27:15.044Z,54.29
2023-04-24T23:29:41.875Z,54.39
2023-04-24T23:32:09.702Z,54.58
2023-04-24T23:34:38.738Z,54.73
2023-04-24T23:37:06.109Z,54.88
2023-04-24T23:39:32.994Z,54.80
2023-04-24T23:42:02.079Z,54.95
2023-04-24T23:44:29.751Z,54.92
2023-04-24T23:46:56.879Z,55.02
2023-04-24T23:49:23.585Z,55.24
2023-04-24T23:51:50.204Z,55.21
2023-04-24T23:54:16.881Z,55.34
2023-04-24T23:56:43.575Z,55.45
2023-04-24T23:59:10.441Z,55.57
